Pagrindinis puslapis
METAR-TAF:

METAR-TAF

Oro uostai :

Bonairė, Nyderlandų Antilai

platuma: 12-09N, ilguma: 068-17W, Aukštis: 6 m

Dabartinis oras

Ataskaita buvo paskelbta 31 minutes, ne 11:55 UTC
Vėjas 13 kt iš Rytų
Temperatūra 27°C
Drėgmė 79%
Slėgis 1016 hPa
Matomumas 10 km arba daugiau
Išsisklaidę debesys ne aukštis 1900 ft
Išsisklaidę debesys ne aukštis 2800 ft
Su prošvaistėmis ne aukštis 3200 ft

METAR: TNCB 281155Z 09013KT 9999 SCT019 SCT028 BKN032 27/23 Q1016

Laikas: 08:26 (12:26 UTC)

Prognozė

Ataskaita buvo paskelbta 1 valandą ir 45 minutes, ne 10:41 UTC
Prognozė galioja nuo 28 metu 12 UTC su 29 metu 18 UTC
Vėjas 12 kt iš Rytų
Matomumas 10 km arba daugiau
Išsisklaidę debesys ne aukštis 2000 ft
Tikimybė 30% :
Laikinai
nuo 28 metu 12 UTC su 28 metu 21 UTC
Vėjas 18 kt iš Rytų
Matomumas: 4000 m
Išsisklaidę debesys ne aukštis 1800 ft, Liūtiniai kamuoliniai debesys.
lietus

TAF: TNCB 281041Z 2812/2918 10012KT 9999 SCT020 PROB30 TEMPO 2812/2821 10018KT 4000 SHRA SCT018CB

Orai ataskaitas ir orų prognozės (METAR, TAF).

turimą stotys yra geltonos ir raudonos taškus žemėlapyje.

Perkelti pele per norėdami pamatyti stoties vardą.

Tada spustelėkite, norėdami matyti oro stebėjimo ir prognozės.

Norėdami pakeisti žemėlapį: spustelėkite ant žalios mygtukų su juodo kryžiaus žemyn,; žalią mygtuką su brūkšneliu, jei norite nutolinti; arba žalių rodyklių gretimoms žemėlapius.


METAR-TAF: